createdAt,value
2022-11-05T00:01:15.807Z,87.77
2022-11-05T00:05:01.354Z,87.53
2022-11-05T00:08:41.269Z,87.07
2022-11-05T00:12:25.261Z,87.06
2022-11-05T00:16:05.566Z,86.95
2022-11-05T00:19:30.377Z,85.92
2022-11-05T00:23:22.364Z,86.47
2022-11-05T00:26:45.952Z,87.07
2022-11-05T00:30:11.325Z,87.40
2022-11-05T00:33:32.981Z,87.42
2022-11-05T00:36:54.534Z,87.08
2022-11-05T00:40:18.416Z,87.02
2022-11-05T00:44:14.759Z,87.16
2022-11-05T00:47:54.473Z,86.69
2022-11-05T00:51:16.002Z,87.75
2022-11-05T00:54:37.549Z,87.98
2022-11-05T00:58:00.649Z,87.62
2022-11-05T01:01:27.255Z,88.32
2022-11-05T01:04:53.334Z,88.12
2022-11-05T01:08:19.152Z,88.31
2022-11-05T01:11:42.941Z,88.51
2022-11-05T01:15:07.647Z,88.14
2022-11-05T01:18:29.150Z,88.55
2022-11-05T01:21:52.855Z,87.96
2022-11-05T01:25:14.513Z,87.97
2022-11-05T01:28:36.097Z,87.75
2022-11-05T01:32:00.286Z,87.82
2022-11-05T01:35:22.018Z,88.04
2022-11-05T01:38:46.018Z,87.53
2022-11-05T01:42:28.550Z,87.57
2022-11-05T01:45:52.790Z,87.22
2022-11-05T01:49:27.966Z,87.16
2022-11-05T01:52:58.305Z,87.68
2022-11-05T01:56:42.394Z,87.65
2022-11-05T02:00:07.211Z,88.10
2022-11-05T02:03:29.669Z,89.39
2022-11-05T02:06:51.274Z,88.18
2022-11-05T02:10:18.283Z,86.68
2022-11-05T02:13:44.645Z,87.72
2022-11-05T02:17:30.558Z,87.58
2022-11-05T02:21:18.350Z,88.13
2022-11-05T02:24:56.149Z,87.86
2022-11-05T02:29:04.620Z,87.67
2022-11-05T02:33:07.873Z,88.32
2022-11-05T02:36:47.094Z,88.74
2022-11-05T02:40:14.010Z,88.44
2022-11-05T02:44:03.806Z,87.80
2022-11-05T02:47:44.880Z,87.24
2022-11-05T02:51:24.529Z,86.47
2022-11-05T02:54:55.388Z,87.46
2022-11-05T02:58:19.148Z,87.20
2022-11-05T03:01:45.743Z,87.92
2022-11-05T03:05:07.385Z,87.45
2022-11-05T03:09:03.237Z,85.64
2022-11-05T03:12:39.989Z,87.05
2022-11-05T03:16:10.181Z,87.09
2022-11-05T03:19:58.234Z,86.97
2022-11-05T03:23:34.782Z,88.40
2022-11-05T03:27:04.963Z,86.97
2022-11-05T03:30:26.851Z,87.40
2022-11-05T03:33:50.609Z,87.66
2022-11-05T03:37:12.170Z,87.84
2022-11-05T03:40:36.046Z,87.63
2022-11-05T03:44:03.546Z,86.46
2022-11-05T03:47:35.264Z,87.24
2022-11-05T03:51:12.822Z,88.29
2022-11-05T03:54:36.889Z,87.01
2022-11-05T03:57:59.109Z,88.01
2022-11-05T04:01:20.745Z,87.52
2022-11-05T04:04:42.734Z,88.01
2022-11-05T04:08:22.750Z,87.79
2022-11-05T04:12:03.212Z,87.33
2022-11-05T04:15:27.133Z,87.29
2022-11-05T04:18:48.695Z,86.68
2022-11-05T04:22:28.734Z,87.55
2022-11-05T04:25:53.266Z,88.04
2022-11-05T04:29:33.230Z,87.87
2022-11-05T04:33:04.496Z,86.83
2022-11-05T04:36:26.150Z,87.00
2022-11-05T04:39:52.250Z,87.23
2022-11-05T04:43:17.155Z,86.94
2022-11-05T04:46:39.007Z,87.29
2022-11-05T04:50:02.861Z,87.37
2022-11-05T04:53:26.623Z,86.94
2022-11-05T04:56:48.128Z,87.11
2022-11-05T05:00:11.198Z,86.32
2022-11-05T05:03:35.086Z,86.44
2022-11-05T05:06:56.642Z,87.22
2022-11-05T05:10:20.249Z,88.27
2022-11-05T05:13:42.055Z,87.70
2022-11-05T05:17:03.565Z,86.97
2022-11-05T05:20:43.815Z,86.09
2022-11-05T05:24:19.243Z,86.76
2022-11-05T05:27:42.676Z,86.62
2022-11-05T05:31:05.907Z,85.46
2022-11-05T05:34:30.432Z,86.21
2022-11-05T05:37:55.737Z,86.05
2022-11-05T05:41:17.655Z,85.74
2022-11-05T05:44:41.530Z,86.39
2022-11-05T05:48:04.258Z,86.72
2022-11-05T05:51:25.838Z,85.76
2022-11-05T05:54:47.408Z,86.36
2022-11-05T05:58:08.953Z,86.53
2022-11-05T06:01:30.514Z,85.28
2022-11-05T06:04:55.164Z,86.08
2022-11-05T06:08:19.356Z,86.41
2022-11-05T06:11:41.321Z,84.94
2022-11-05T06:15:05.932Z,85.76
2022-11-05T06:18:30.444Z,85.69
2022-11-05T06:21:52.051Z,85.14
2022-11-05T06:25:15.995Z,86.07
2022-11-05T06:28:37.754Z,86.00
2022-11-05T06:31:59.295Z,86.38
2022-11-05T06:35:23.197Z,86.60
2022-11-05T06:38:44.994Z,85.24
2022-11-05T06:42:18.225Z,85.72
2022-11-05T06:45:40.294Z,87.03
2022-11-05T06:49:01.935Z,87.29
2022-11-05T06:52:23.429Z,86.87
2022-11-05T06:55:50.038Z,85.82
2022-11-05T06:59:11.592Z,85.41
2022-11-05T07:02:33.160Z,84.86
2022-11-05T07:05:57.445Z,84.36
2022-11-05T07:09:21.310Z,83.20
2022-11-05T07:12:45.345Z,84.85
2022-11-05T07:16:13.257Z,84.91
2022-11-05T07:19:34.904Z,84.79
2022-11-05T07:23:06.465Z,85.11
2022-11-05T07:26:34.355Z,86.89
2022-11-05T07:29:56.389Z,85.59
2022-11-05T07:33:17.998Z,86.19
2022-11-05T07:36:41.143Z,85.98
2022-11-05T07:40:05.545Z,84.28
2022-11-05T07:43:27.255Z,84.49
2022-11-05T07:46:49.868Z,85.33
2022-11-05T07:50:13.792Z,87.69
2022-11-05T07:53:35.420Z,88.14
2022-11-05T07:56:58.150Z,86.48
2022-11-05T08:00:24.487Z,86.08
2022-11-05T08:03:46.344Z,85.84
2022-11-05T08:07:08.377Z,85.63
2022-11-05T08:10:29.960Z,85.58
2022-11-05T08:13:51.475Z,84.27
2022-11-05T08:17:18.398Z,84.61
2022-11-05T08:20:41.674Z,84.12
2022-11-05T08:24:03.340Z,84.84
2022-11-05T08:27:24.889Z,84.97
2022-11-05T08:30:57.814Z,82.87
2022-11-05T08:34:24.498Z,83.00
2022-11-05T08:37:46.070Z,83.32
2022-11-05T08:41:10.394Z,82.88
2022-11-05T08:44:35.406Z,83.36
2022-11-05T08:48:04.509Z,82.74
2022-11-05T08:51:28.282Z,83.11
2022-11-05T08:54:52.109Z,83.88
2022-11-05T08:58:17.186Z,83.17
2022-11-05T09:01:42.094Z,81.62
2022-11-05T09:05:03.943Z,81.56
2022-11-05T09:08:25.873Z,81.82
2022-11-05T09:12:11.269Z,81.14
2022-11-05T09:15:32.104Z,80.97
2022-11-05T09:18:57.166Z,81.49
2022-11-05T09:22:18.660Z,82.11
2022-11-05T09:25:40.428Z,82.78
2022-11-05T09:29:02.109Z,81.66
2022-11-05T09:32:26.023Z,80.84
2022-11-05T09:35:51.747Z,83.12
2022-11-05T09:39:13.328Z,82.99
2022-11-05T09:42:47.024Z,82.76
2022-11-05T09:46:27.016Z,82.34
2022-11-05T09:49:53.913Z,82.37
2022-11-05T09:53:20.248Z,81.59
2022-11-05T09:56:45.083Z,81.59
2022-11-05T10:00:08.598Z,81.05
2022-11-05T10:03:31.050Z,81.19
2022-11-05T10:06:59.424Z,80.76
2022-11-05T10:10:35.237Z,81.02
2022-11-05T10:14:13.834Z,79.69
2022-11-05T10:17:40.840Z,80.03
2022-11-05T10:21:06.791Z,77.87
2022-11-05T10:24:30.612Z,79.15
2022-11-05T10:27:57.709Z,76.91
2022-11-05T10:31:21.336Z,77.25
2022-11-05T10:34:43.284Z,77.85
2022-11-05T10:38:12.276Z,78.64
2022-11-05T10:41:39.045Z,78.12
2022-11-05T10:45:29.282Z,78.41
2022-11-05T10:48:59.835Z,78.67
2022-11-05T10:52:39.425Z,78.82
2022-11-05T10:56:00.995Z,76.40
2022-11-05T10:59:28.596Z,77.70
2022-11-05T11:03:05.624Z,76.56
2022-11-05T11:06:30.659Z,77.63
2022-11-05T11:09:52.848Z,77.84
2022-11-05T11:13:27.018Z,78.22
2022-11-05T11:16:57.229Z,78.16
2022-11-05T11:20:32.944Z,79.58
2022-11-05T11:24:07.142Z,78.40
2022-11-05T11:27:34.660Z,76.02
2022-11-05T11:31:24.141Z,74.13
2022-11-05T11:34:48.411Z,73.13
2022-11-05T11:38:14.642Z,71.90
2022-11-05T11:41:41.874Z,73.26
2022-11-05T11:45:15.696Z,74.40
2022-11-05T11:48:45.726Z,74.46
2022-11-05T11:52:13.856Z,76.44
2022-11-05T11:55:35.368Z,76.05
2022-11-05T11:59:01.185Z,77.74
2022-11-05T12:02:43.182Z,77.12
2022-11-05T12:06:29.957Z,78.08
2022-11-05T12:09:57.498Z,77.14
2022-11-05T12:13:19.055Z,77.27
2022-11-05T12:17:07.411Z,76.73
2022-11-05T12:20:40.807Z,77.54
2022-11-05T12:24:23.521Z,90.86
2022-11-05T12:28:08.743Z,72.77
2022-11-05T12:31:58.232Z,79.63
2022-11-05T12:35:47.050Z,72.27
2022-11-05T12:39:23.808Z,74.70
2022-11-05T12:42:58.824Z,74.57
2022-11-05T12:46:31.246Z,71.51
2022-11-05T12:50:15.229Z,70.11
2022-11-05T12:53:48.107Z,72.14
2022-11-05T12:57:13.021Z,73.67
2022-11-05T13:00:38.268Z,73.37
2022-11-05T13:04:06.663Z,73.92
2022-11-05T13:07:34.302Z,73.53
2022-11-05T13:10:59.807Z,73.41
2022-11-05T13:14:26.879Z,78.97
2022-11-05T13:18:10.700Z,76.43
2022-11-05T13:21:36.037Z,78.23
2022-11-05T13:25:02.727Z,76.75
2022-11-05T13:28:59.330Z,74.77
2022-11-05T13:33:03.760Z,73.96
2022-11-05T13:36:51.522Z,71.90
2022-11-05T13:40:17.797Z,71.94
2022-11-05T13:43:58.316Z,74.94
2022-11-05T13:47:43.182Z,77.10
2022-11-05T13:51:04.783Z,70.58
2022-11-05T13:54:33.233Z,71.71
2022-11-05T13:58:09.071Z,72.09
2022-11-05T14:01:56.988Z,72.99
2022-11-05T14:05:21.511Z,74.52
2022-11-05T14:08:45.232Z,74.50
2022-11-05T14:12:19.573Z,74.96
2022-11-05T14:15:55.164Z,75.86
2022-11-05T14:19:22.459Z,81.89
2022-11-05T14:22:48.799Z,79.49
2022-11-05T14:26:17.769Z,71.86
2022-11-05T14:29:45.364Z,76.66
2022-11-05T14:33:27.979Z,76.30
2022-11-05T14:37:11.347Z,75.08
2022-11-05T14:40:40.344Z,69.95
2022-11-05T14:44:06.861Z,74.54
2022-11-05T14:47:33.417Z,71.85
2022-11-05T14:50:55.131Z,71.19
2022-11-05T14:54:39.608Z,72.40
2022-11-05T14:58:04.892Z,72.94
2022-11-05T15:01:34.940Z,73.68
2022-11-05T15:05:34.114Z,74.06
2022-11-05T15:08:58.944Z,74.21
2022-11-05T15:12:30.123Z,74.31
2022-11-05T15:15:52.396Z,74.50
2022-11-05T15:19:25.727Z,74.28
2022-11-05T15:22:56.168Z,73.66
2022-11-05T15:26:47.128Z,74.08
2022-11-05T15:30:20.625Z,79.35
2022-11-05T15:33:44.148Z,77.99
2022-11-05T15:37:12.117Z,77.42
2022-11-05T15:40:38.170Z,75.85
2022-11-05T15:44:05.059Z,74.14
2022-11-05T15:47:31.679Z,73.57
2022-11-05T15:50:56.384Z,73.67
2022-11-05T15:54:36.519Z,72.34
2022-11-05T15:57:59.912Z,68.04
2022-11-05T16:01:50.043Z,68.66
2022-11-05T16:05:15.687Z,69.54
2022-11-05T16:08:39.435Z,71.18
2022-11-05T16:12:19.406Z,71.40
2022-11-05T16:15:56.125Z,71.86
2022-11-05T16:19:40.161Z,72.15
2022-11-05T16:23:23.691Z,72.40
2022-11-05T16:27:02.319Z,72.65
2022-11-05T16:30:25.143Z,72.72
2022-11-05T16:33:47.791Z,72.96
2022-11-05T16:37:14.848Z,74.25
2022-11-05T16:40:38.673Z,75.05
2022-11-05T16:44:00.466Z,75.89
2022-11-05T16:47:26.053Z,76.33
2022-11-05T16:50:47.612Z,77.11
2022-11-05T16:54:09.486Z,77.37
2022-11-05T16:57:32.059Z,77.89
2022-11-05T17:01:08.094Z,78.99
2022-11-05T17:04:29.677Z,78.63
2022-11-05T17:07:54.745Z,79.87
2022-11-05T17:11:21.648Z,80.33
2022-11-05T17:14:43.169Z,80.13
2022-11-05T17:18:05.503Z,80.87
2022-11-05T17:21:28.792Z,81.32
2022-11-05T17:24:55.121Z,81.27
2022-11-05T17:28:20.861Z,81.90
2022-11-05T17:31:44.923Z,82.40
2022-11-05T17:35:07.309Z,82.28
2022-11-05T17:38:28.919Z,82.55
2022-11-05T17:41:50.644Z,83.12
2022-11-05T17:45:15.659Z,82.96
2022-11-05T17:48:44.672Z,83.58
2022-11-05T17:52:08.467Z,83.72
2022-11-05T17:55:32.152Z,83.25
2022-11-05T17:58:55.182Z,83.76
2022-11-05T18:02:19.427Z,83.83
2022-11-05T18:05:44.053Z,84.12
2022-11-05T18:09:06.958Z,84.74
2022-11-05T18:12:30.671Z,84.31
2022-11-05T18:15:53.271Z,84.24
2022-11-05T18:19:14.939Z,84.80
2022-11-05T18:22:39.635Z,84.99
2022-11-05T18:26:01.318Z,85.64
2022-11-05T18:29:25.258Z,85.86
2022-11-05T18:32:47.747Z,86.30
2022-11-05T18:36:22.159Z,86.34
2022-11-05T18:39:46.597Z,86.43
2022-11-05T18:43:08.147Z,86.49
2022-11-05T18:46:56.661Z,86.05
2022-11-05T18:50:22.858Z,86.01
2022-11-05T18:53:47.996Z,86.40
2022-11-05T18:57:16.898Z,86.91
2022-11-05T19:00:41.865Z,86.70
2022-11-05T19:04:11.047Z,87.35
2022-11-05T19:07:37.071Z,87.21
2022-11-05T19:10:59.283Z,86.84
2022-11-05T19:14:23.012Z,86.63
2022-11-05T19:17:46.484Z,86.55
2022-11-05T19:21:17.653Z,86.94
2022-11-05T19:24:39.209Z,87.13
2022-11-05T19:28:03.444Z,86.90
2022-11-05T19:31:28.027Z,86.84
2022-11-05T19:34:49.584Z,87.19
2022-11-05T19:38:13.821Z,87.05
2022-11-05T19:41:35.887Z,87.27
2022-11-05T19:45:06.873Z,87.57
2022-11-05T19:48:39.133Z,87.59
2022-11-05T19:52:05.243Z,87.45
2022-11-05T19:55:26.815Z,87.54
2022-11-05T19:58:49.157Z,87.93
2022-11-05T20:02:16.048Z,96.26
2022-11-05T20:05:43.300Z,94.62
2022-11-05T20:09:21.461Z,88.12
2022-11-05T20:12:44.033Z,85.66
2022-11-05T20:16:17.811Z,82.19
2022-11-05T20:19:39.379Z,82.47
2022-11-05T20:23:00.933Z,83.82
2022-11-05T20:26:25.418Z,85.08
2022-11-05T20:29:50.307Z,85.53
2022-11-05T20:33:13.865Z,86.17
2022-11-05T20:36:41.374Z,86.69
2022-11-05T20:40:05.655Z,86.72
2022-11-05T20:43:30.278Z,87.11
2022-11-05T20:46:56.859Z,87.07
2022-11-05T20:50:28.208Z,87.14
2022-11-05T20:53:55.204Z,87.65
2022-11-05T20:57:16.710Z,91.70
2022-11-05T21:00:40.756Z,92.40
2022-11-05T21:04:03.372Z,90.62
2022-11-05T21:07:28.008Z,89.48
2022-11-05T21:10:51.385Z,88.14
2022-11-05T21:14:13.066Z,88.39
2022-11-05T21:17:35.404Z,87.62
2022-11-05T21:21:00.470Z,82.58
2022-11-05T21:24:22.005Z,83.50
2022-11-05T21:27:43.932Z,84.82
2022-11-05T21:31:06.662Z,85.51
2022-11-05T21:34:30.670Z,85.79
2022-11-05T21:37:52.248Z,86.59
2022-11-05T21:41:17.682Z,86.99
2022-11-05T21:44:39.226Z,87.32
2022-11-05T21:48:11.600Z,87.58
2022-11-05T21:51:55.339Z,87.74
2022-11-05T21:55:42.384Z,87.78
2022-11-05T21:59:24.884Z,88.17
2022-11-05T22:02:49.491Z,88.21
2022-11-05T22:06:16.100Z,88.48
2022-11-05T22:09:40.332Z,88.35
2022-11-05T22:13:04.244Z,88.30
2022-11-05T22:16:25.844Z,93.60
2022-11-05T22:19:49.476Z,92.26
2022-11-05T22:23:30.586Z,90.64
2022-11-05T22:26:52.162Z,84.87
2022-11-05T22:30:14.446Z,85.29
2022-11-05T22:33:36.026Z,86.30
2022-11-05T22:36:57.572Z,86.87
2022-11-05T22:40:22.202Z,87.44
2022-11-05T22:43:46.430Z,88.06
2022-11-05T22:47:08.057Z,88.24
2022-11-05T22:50:29.585Z,88.51
2022-11-05T22:53:51.540Z,88.26
2022-11-05T22:57:14.971Z,88.45
2022-11-05T23:00:37.632Z,88.33
2022-11-05T23:03:59.389Z,88.63
2022-11-05T23:07:39.506Z,88.58
2022-11-05T23:11:21.178Z,88.35
2022-11-05T23:14:42.889Z,88.33
2022-11-05T23:18:22.923Z,88.63
2022-11-05T23:22:02.797Z,88.34
2022-11-05T23:25:26.956Z,88.63
2022-11-05T23:28:48.477Z,88.44
2022-11-05T23:32:24.833Z,88.63
2022-11-05T23:36:07.347Z,88.38
2022-11-05T23:39:28.846Z,88.51
2022-11-05T23:43:09.481Z,88.55
2022-11-05T23:46:51.768Z,89.09
2022-11-05T23:50:15.503Z,88.98
2022-11-05T23:53:39.985Z,88.98
2022-11-05T23:57:01.736Z,89.10
